Time;durP1;ratioP1;P1;durP2;ratioP2;P2;SDS_P1;SDS_P2;PMS_P1;PMS_P2;Temp;Humidity;BMP_temperature;BMP_pressure;BME280_temperature;BME280_humidity;BME280_pressure;Samples;Min_cycle;Max_cycle;Signal;HPM_P1;HPM_P2
2022/06/11 00:01:09;;;;;;;4.32;2.78;;;;;;;15.98;99.85;100645.22;5051743;28;20021;-63
2022/06/11 00:03:36;;;;;;;5.85;3.40;;;;;;;15.94;100.00;100658.88;5051950;28;20059;-63
2022/06/11 00:06:03;;;;;;;5.63;3.63;;;;;;;15.93;100.00;100654.44;5051646;28;20053;-63
2022/06/11 00:08:29;;;;;;;8.07;4.15;;;;;;;15.90;100.00;100655.44;5051864;28;20021;-64
2022/06/11 00:10:55;;;;;;;5.40;3.65;;;;;;;15.94;100.00;100648.13;5052489;28;20163;-62
2022/06/11 00:13:22;;;;;;;9.07;3.95;;;;;;;15.93;100.00;100655.31;5034517;28;20101;-62
2022/06/11 00:15:49;;;;;;;6.20;3.45;;;;;;;15.91;100.00;100657.22;5031764;28;20033;-63
2022/06/11 00:18:16;;;;;;;9.38;3.80;;;;;;;15.88;100.00;100659.16;5052175;28;20432;-62
2022/06/11 00:20:44;;;;;;;7.38;3.53;;;;;;;15.83;100.00;100660.19;5030001;28;20039;-65
2022/06/11 00:23:10;;;;;;;7.70;4.80;;;;;;;15.78;100.00;100664.91;5029264;28;20143;-63
2022/06/11 00:25:35;;;;;;;7.82;4.20;;;;;;;15.74;100.00;100659.75;5029326;28;20033;-63
2022/06/11 00:28:03;;;;;;;6.80;4.05;;;;;;;15.72;100.00;100662.50;5029572;28;20033;-63
2022/06/11 00:30:28;;;;;;;6.28;3.92;;;;;;;15.71;100.00;100660.75;5029721;28;20029;-63
2022/06/11 00:32:55;;;;;;;8.82;4.03;;;;;;;15.72;100.00;100662.50;5033977;28;20021;-63
2022/06/11 00:35:21;;;;;;;9.55;4.80;;;;;;;15.69;100.00;100651.91;5031425;28;20040;-63
2022/06/11 00:37:47;;;;;;;8.32;4.28;;;;;;;15.69;100.00;100659.06;5048077;28;20524;-63
2022/06/11 00:40:20;;;;;;;8.27;3.75;;;;;;;15.67;100.00;100664.50;5051798;28;20143;-63
2022/06/11 00:42:45;;;;;;;6.57;3.87;;;;;;;15.70;100.00;100663.47;5051112;28;20039;-63
2022/06/11 00:45:14;;;;;;;8.30;4.20;;;;;;;15.68;100.00;100660.88;5051537;28;20108;-63
2022/06/11 00:47:40;;;;;;;6.38;3.90;;;;;;;15.64;100.00;100666.44;5049815;28;20032;-63
2022/06/11 00:50:39;;;;;;;8.75;3.88;;;;;;;15.59;100.00;100661.28;5049296;28;20028;-63
2022/06/11 00:53:12;;;;;;;7.22;3.78;;;;;;;15.56;100.00;100664.09;5048601;28;20037;-63
2022/06/11 00:55:38;;;;;;;;;;;;;;;15.56;100.00;100669.47;5049791;28;20392;-63
2022/06/11 00:58:16;;;;;;;6.15;3.63;;;;;;;15.54;100.00;100671.31;5049205;28;19916;-63
2022/06/11 01:00:49;;;;;;;6.78;3.55;;;;;;;15.55;100.00;100661.47;5050740;28;20424;-63
2022/06/11 01:03:18;;;;;;;7.93;3.70;;;;;;;15.51;100.00;100668.78;5051316;28;20159;-63
2022/06/11 01:05:49;;;;;;;7.68;3.50;;;;;;;15.52;100.00;100662.47;5050361;28;20506;-63
2022/06/11 01:08:52;;;;;;;9.68;4.00;;;;;;;15.53;100.00;100668.72;5031103;28;20033;-63
2022/06/11 01:12:13;;;;;;;7.63;3.33;;;;;;;15.53;100.00;100666.03;5031193;28;20036;-63
2022/06/11 01:14:47;;;;;;;7.15;3.22;;;;;;;15.48;100.00;100663.56;5029878;28;20041;-63
2022/06/11 01:17:30;;;;;;;9.32;4.00;;;;;;;15.39;100.00;100663.94;5048043;28;20024;-63
2022/06/11 01:20:07;;;;;;;10.77;3.47;;;;;;;15.36;100.00;100666.69;5058570;28;20057;-63
2022/06/11 01:22:50;;;;;;;6.20;3.25;;;;;;;15.29;100.00;100662.53;5031134;28;20039;-63
2022/06/11 01:25:32;;;;;;;;;;;;;;;15.24;100.00;100660.97;5031214;28;20021;-63
2022/06/11 01:28:14;;;;;;;5.57;3.25;;;;;;;15.21;100.00;100661.97;5030864;28;20380;-63
2022/06/11 01:30:51;;;;;;;5.95;3.00;;;;;;;15.19;100.00;100669.19;5030481;28;20078;-63
2022/06/11 01:33:21;;;;;;;7.80;3.30;;;;;;;15.17;100.00;100663.03;5030810;28;20080;-63
2022/06/11 01:36:05;;;;;;;7.07;3.20;;;;;;;15.15;100.00;100664.91;5042922;28;20056;-63
2022/06/11 01:38:33;;;;;;;6.63;3.17;;;;;;;15.14;100.00;100657.78;5034076;28;20264;-63
2022/06/11 01:41:26;;;;;;;6.57;3.10;;;;;;;15.11;100.00;100662.41;5033309;28;20396;-63
2022/06/11 01:44:01;;;;;;;7.88;3.22;;;;;;;15.10;100.00;100663.34;5033490;28;20101;-63
2022/06/11 01:46:35;;;;;;;6.25;3.55;;;;;;;15.02;100.00;100665.47;5033348;28;20389;-63
2022/06/11 01:49:26;;;;;;;7.50;3.30;;;;;;;14.97;100.00;100641.56;5033124;28;20028;-63
2022/06/11 01:52:13;;;;;;;7.45;3.10;;;;;;;14.99;100.00;100658.41;5033213;28;20681;-63
2022/06/11 01:55:16;;;;;;;6.53;3.05;;;;;;;14.95;100.00;100656.81;5034611;28;20152;-63
2022/06/11 01:58:22;;;;;;;6.38;3.03;;;;;;;14.92;100.00;100659.63;5034466;28;20037;-63
2022/06/11 02:01:16;;;;;;;7.55;3.10;;;;;;;14.84;100.00;100659.06;5033529;28;20119;-63
2022/06/11 02:04:04;;;;;;;5.63;3.00;;;;;;;14.85;100.00;100659.91;5040234;28;20060;-63
2022/06/11 02:06:45;;;;;;;6.03;3.40;;;;;;;14.83;100.00;100657.28;5053858;28;20044;-63
2022/06/11 02:09:32;;;;;;;5.75;2.75;;;;;;;14.82;100.00;100655.56;5054288;28;20033;-63
2022/06/11 02:12:08;;;;;;;6.10;3.13;;;;;;;14.74;100.00;100657.66;5054172;28;20025;-63
2022/06/11 02:14:41;;;;;;;5.85;3.20;;;;;;;14.73;100.00;100663.94;5052432;28;20017;-63
2022/06/11 02:17:14;;;;;;;4.63;2.70;;;;;;;14.71;100.00;100665.78;5060346;28;20201;-63
2022/06/11 02:19:45;;;;;;;6.03;3.60;;;;;;;14.71;100.00;100668.47;5037626;28;20025;-63
2022/06/11 02:22:21;;;;;;;6.95;2.90;;;;;;;14.62;100.00;100657.25;5032525;28;20029;-63
2022/06/11 02:24:51;;;;;;;5.10;3.13;;;;;;;14.63;100.00;100659.88;5032673;28;20033;-63
2022/06/11 02:27:25;;;;;;;8.68;3.38;;;;;;;14.62;100.00;100660.81;5032382;28;20068;-63
2022/06/11 02:29:53;;;;;;;8.27;2.63;;;;;;;14.62;100.00;100668.84;5051691;28;20078;-63
2022/06/11 02:32:20;;;;;;;4.32;2.78;;;;;;;14.58;100.00;100671.72;5053779;28;20025;-63
2022/06/11 02:34:53;;;;;;;6.82;2.80;;;;;;;14.58;100.00;100677.06;5052530;28;20110;-63
2022/06/11 02:37:24;;;;;;;5.78;3.13;;;;;;;14.55;100.00;100674.50;5040210;28;20121;-63
2022/06/11 02:39:51;;;;;;;7.80;3.38;;;;;;;14.54;100.00;100676.31;5033799;28;20022;-63
2022/06/11 02:42:20;;;;;;;11.48;5.63;;;;;;;14.51;100.00;100673.75;5033796;28;20384;-63
2022/06/11 02:44:46;;;;;;;12.60;5.70;;;;;;;14.47;100.00;100672.09;5036264;28;20037;-63
2022/06/11 02:47:14;;;;;;;7.20;4.82;;;;;;;14.47;100.00;100664.97;5032344;28;20025;-63
2022/06/11 02:49:39;;;;;;;8.10;5.05;;;;;;;14.47;100.00;100674.78;5033583;28;20492;-63
2022/06/11 02:52:13;;;;;;;11.82;5.22;;;;;;;14.40;100.00;100671.47;5033439;28;20033;-63
2022/06/11 02:54:39;;;;;;;8.35;5.43;;;;;;;14.38;100.00;100667.97;5033775;28;20484;-63
2022/06/11 02:57:10;;;;;;;8.00;5.05;;;;;;;14.36;100.00;100668.97;5033486;28;20025;-63
2022/06/11 02:59:36;;;;;;;10.13;4.38;;;;;;;14.35;100.00;100661.84;5033391;28;20315;-63
2022/06/11 03:02:02;;;;;;;6.60;4.38;;;;;;;14.30;100.00;100666.50;5033431;28;20109;-63
2022/06/11 03:04:31;;;;;;;8.95;4.07;;;;;;;14.33;100.00;100667.25;5033198;28;20040;-63
2022/06/11 03:06:57;;;;;;;6.72;4.10;;;;;;;14.30;100.00;100677.22;5033103;28;20099;-63
2022/06/11 03:09:25;;;;;;;7.60;4.25;;;;;;;14.35;100.00;100675.22;5032518;28;20037;-63
2022/06/11 03:11:51;;;;;;;6.22;3.72;;;;;;;14.33;100.00;100669.94;5032160;28;20111;-63
2022/06/11 03:14:17;;;;;;;6.25;3.60;;;;;;;14.34;100.00;100678.84;5031837;28;20025;-63
2022/06/11 03:16:44;;;;;;;6.20;3.67;;;;;;;14.30;100.00;100683.44;5040502;28;20055;-63
2022/06/11 03:19:10;;;;;;;6.72;3.58;;;;;;;14.32;100.00;100694.09;5056741;28;20028;-63
2022/06/11 03:21:37;;;;;;;9.70;4.25;;;;;;;14.32;100.00;100686.06;5031998;28;20389;-62
2022/06/11 03:24:03;;;;;;;6.68;3.70;;;;;;;14.27;100.00;100678.22;5032080;28;20049;-62
2022/06/11 03:26:29;;;;;;;7.60;3.65;;;;;;;14.28;100.00;100687.13;5033019;28;20029;-62
2022/06/11 03:28:54;;;;;;;8.38;4.07;;;;;;;14.28;100.00;100689.78;5032895;28;20025;-62
2022/06/11 03:31:20;;;;;;;7.63;4.03;;;;;;;14.26;100.00;100694.31;5032769;28;20040;-63
2022/06/11 03:33:45;;;;;;;6.05;3.40;;;;;;;14.26;100.00;100697.00;5032751;28;20033;-63
2022/06/11 03:36:14;;;;;;;6.60;3.10;;;;;;;14.24;100.00;100690.78;5036628;28;20043;-63
2022/06/11 03:38:42;;;;;;;9.77;3.33;;;;;;;14.24;100.00;100696.13;5052588;28;20021;-63
2022/06/11 03:41:09;;;;;;;7.13;3.00;;;;;;;14.26;100.00;100702.34;5051572;28;20032;-63
2022/06/11 03:43:35;;;;;;;5.47;3.15;;;;;;;14.25;100.00;100705.94;5051065;28;20033;-63
2022/06/11 03:46:01;;;;;;;6.57;3.13;;;;;;;14.25;100.00;100701.47;5050564;28;20427;-63
2022/06/11 03:48:31;;;;;;;4.88;3.30;;;;;;;14.24;100.00;100694.34;5040033;28;20051;-63
2022/06/11 03:50:59;;;;;;;6.13;3.13;;;;;;;14.26;100.00;100705.03;5030563;28;20057;-63
2022/06/11 03:53:27;;;;;;;4.32;2.70;;;;;;;14.27;100.00;100701.41;5030698;28;20097;-63
2022/06/11 03:55:53;;;;;;;6.72;3.10;;;;;;;14.28;100.00;100706.69;5031310;28;20550;-63
2022/06/11 03:58:19;;;;;;;4.93;3.42;;;;;;;14.31;100.00;100717.31;5032110;28;20083;-63
2022/06/11 04:03:30;;;;;;;5.82;3.33;;;;;;;14.31;100.00;100719.13;5032494;28;20063;-63
2022/06/11 04:05:56;;;;;;;5.47;3.40;;;;;;;14.33;100.00;100720.78;5032014;28;20512;-62
2022/06/11 04:08:24;;;;;;;5.88;3.42;;;;;;;14.37;100.00;100705.50;5034486;28;20401;-62
2022/06/11 04:10:51;;;;;;;6.75;3.38;;;;;;;14.50;100.00;100717.50;5052131;28;20438;-62
2022/06/11 04:13:18;;;;;;;5.68;3.10;;;;;;;14.50;100.00;100723.72;5052123;28;20021;-62
2022/06/11 04:15:44;;;;;;;8.35;3.20;;;;;;;14.52;100.00;100726.34;5051912;28;20031;-62
2022/06/11 04:18:22;;;;;;;5.07;3.17;;;;;;;14.59;100.00;100722.50;5056522;28;20032;-62
2022/06/11 04:20:48;;;;;;;6.40;3.17;;;;;;;14.63;100.00;100717.94;5037824;28;20083;-62
2022/06/11 04:23:13;;;;;;;5.65;3.53;;;;;;;14.69;100.00;100718.56;5031783;28;20420;-62
2022/06/11 04:25:38;;;;;;;4.20;2.92;;;;;;;14.76;100.00;100725.41;5032027;28;20389;-62
2022/06/11 04:28:04;;;;;;;7.22;3.58;;;;;;;14.80;100.00;100727.03;5031743;28;20037;-62
2022/06/11 04:30:30;;;;;;;5.47;3.13;;;;;;;14.89;100.00;100736.53;5039329;28;20053;-62
2022/06/11 04:32:55;;;;;;;4.78;3.10;;;;;;;14.96;100.00;100736.22;5051526;28;20098;-62
2022/06/11 04:35:21;;;;;;;4.95;2.83;;;;;;;15.00;100.00;100737.00;5051608;28;20035;-63
2022/06/11 04:37:47;;;;;;;8.80;3.50;;;;;;;15.05;100.00;100733.22;5051209;28;20021;-63
2022/06/11 04:40:16;;;;;;;5.35;3.50;;;;;;;15.25;100.00;100735.09;5050869;28;20029;-63
2022/06/11 04:42:41;;;;;;;6.57;4.43;;;;;;;15.56;100.00;100731.13;5051280;28;20039;-63
2022/06/11 04:45:07;;;;;;;6.53;3.83;;;;;;;16.01;100.00;100738.16;5050212;28;20029;-63
2022/06/11 04:47:33;;;;;;;8.80;3.80;;;;;;;16.13;99.55;100732.28;5033977;28;20037;-63
2022/06/11 04:50:01;;;;;;;6.82;3.80;;;;;;;16.17;98.43;100740.13;5031538;28;20484;-62
2022/06/11 04:52:26;;;;;;;6.68;3.85;;;;;;;16.19;97.80;100737.38;5031208;28;20495;-62
2022/06/11 04:54:53;;;;;;;8.18;3.80;;;;;;;16.24;97.55;100736.22;5031711;28;20021;-63
2022/06/11 04:57:19;;;;;;;7.55;3.58;;;;;;;16.30;97.44;100741.31;5031698;28;20104;-63
2022/06/11 04:59:45;;;;;;;10.48;3.85;;;;;;;16.39;97.09;100745.41;5031896;28;20032;-63
2022/06/11 05:02:11;;;;;;;5.82;3.25;;;;;;;16.46;96.68;100746.91;5031544;28;20041;-63
2022/06/11 05:04:36;;;;;;;8.13;3.90;;;;;;;16.52;96.61;100744.81;5031095;28;20052;-62
2022/06/11 05:07:03;;;;;;;5.93;3.13;;;;;;;16.61;96.39;100752.47;5030676;28;20505;-63
2022/06/11 05:09:28;;;;;;;7.35;3.05;;;;;;;16.70;95.87;100746.69;5030727;28;20032;-63
2022/06/11 05:11:55;;;;;;;6.80;2.85;;;;;;;16.80;94.75;100747.13;5031199;28;20021;-62
2022/06/11 05:14:21;;;;;;;5.80;3.13;;;;;;;16.91;93.78;100750.19;5030911;28;20052;-62
2022/06/11 05:16:47;;;;;;;5.93;3.35;;;;;;;17.00;92.97;100755.13;5040683;28;20028;-62
2022/06/11 05:19:18;;;;;;;9.70;3.15;;;;;;;17.13;91.67;100755.41;5039647;28;20096;-62
2022/06/11 05:21:44;;;;;;;5.45;3.33;;;;;;;17.23;90.27;100757.59;5031754;28;20389;-62
2022/06/11 05:24:10;;;;;;;7.40;3.00;;;;;;;17.34;88.66;100752.56;5050433;28;20032;-62
2022/06/11 05:26:42;;;;;;;5.35;3.10;;;;;;;17.41;87.26;100762.09;5049898;28;20116;-62
2022/06/11 05:29:10;;;;;;;6.05;3.20;;;;;;;17.53;86.85;100755.28;5049743;28;20459;-62
2022/06/11 05:31:35;;;;;;;5.63;3.20;;;;;;;17.64;86.40;100761.00;5049769;28;20067;-62
2022/06/11 05:34:01;;;;;;;4.93;2.65;;;;;;;17.77;86.25;100757.63;5049455;28;20061;-62
2022/06/11 05:36:29;;;;;;;7.40;3.08;;;;;;;17.91;85.12;100757.78;5049558;28;20036;-62
2022/06/11 05:38:55;;;;;;;8.68;2.70;;;;;;;18.06;85.01;100750.72;5049637;28;20021;-62
2022/06/11 05:41:20;;;;;;;6.40;2.88;;;;;;;18.13;84.20;100749.47;5050547;28;20028;-62
2022/06/11 05:43:46;;;;;;;3.45;2.33;;;;;;;18.27;83.37;100745.09;5050626;28;20116;-62
2022/06/11 05:46:18;;;;;;;4.47;3.17;;;;;;;18.37;82.83;100757.16;5050864;28;20040;-63
2022/06/11 05:48:52;;;;;;;6.57;3.08;;;;;;;18.45;82.00;100751.38;5038983;28;20370;-62
2022/06/11 05:51:25;;;;;;;6.20;2.83;;;;;;;18.60;80.84;100752.41;5030426;28;20038;-62
2022/06/11 05:53:54;;;;;;;6.65;3.05;;;;;;;18.79;80.18;100763.91;5030685;28;20053;-62
2022/06/11 05:56:20;;;;;;;7.03;3.03;;;;;;;18.92;80.99;100765.00;5030930;28;20037;-64
2022/06/11 05:58:52;;;;;;;6.32;3.20;;;;;;;19.04;79.42;100764.31;5030582;28;20025;-62
2022/06/11 06:01:23;;;;;;;7.43;3.42;;;;;;;19.19;78.80;100768.88;5030993;28;20083;-62
2022/06/11 06:03:48;;;;;;;5.60;3.03;;;;;;;19.26;77.57;100781.03;5030456;28;20030;-62
2022/06/11 06:06:14;;;;;;;6.57;3.05;;;;;;;19.38;76.91;100772.28;5030370;28;20042;-63
2022/06/11 06:08:40;;;;;;;6.63;3.17;;;;;;;19.49;77.87;100769.84;5033030;28;20021;-62
2022/06/11 06:11:06;;;;;;;7.18;3.53;;;;;;;19.60;76.27;100778.22;5033031;28;20465;-62
2022/06/11 06:13:47;;;;;;;6.43;2.92;;;;;;;19.72;75.24;100777.50;5030564;28;20055;-62
2022/06/11 06:16:17;;;;;;;7.90;3.13;;;;;;;19.85;75.27;100770.41;5042755;28;20492;-62
2022/06/11 06:18:43;;;;;;;5.93;3.15;;;;;;;20.03;74.37;100774.72;5047556;28;20426;-63
2022/06/11 06:21:09;;;;;;;5.88;2.83;;;;;;;20.15;73.69;100770.47;5031432;28;20057;-63
2022/06/11 06:23:35;;;;;;;7.43;2.83;;;;;;;20.28;72.96;100772.34;5034095;28;20021;-63
2022/06/11 06:26:01;;;;;;;5.55;2.60;;;;;;;20.40;71.73;100774.31;5032418;28;20087;-62
2022/06/11 06:28:26;;;;;;;5.00;2.42;;;;;;;20.59;71.71;100774.91;5030473;28;20033;-62
2022/06/11 06:30:52;;;;;;;5.35;2.70;;;;;;;20.66;70.44;100780.81;5030350;28;20333;-62
2022/06/11 06:33:18;;;;;;;4.78;3.00;;;;;;;20.74;68.76;100773.97;5030134;28;20056;-62
2022/06/11 06:35:43;;;;;;;8.77;3.20;;;;;;;20.90;69.38;100769.34;5043572;28;20013;-62
2022/06/11 06:38:08;;;;;;;5.55;2.88;;;;;;;21.00;67.79;100772.38;5049849;28;20028;-62
2022/06/11 06:40:35;;;;;;;4.65;2.53;;;;;;;21.17;68.00;100763.19;5050703;28;20439;-62
2022/06/11 06:43:01;;;;;;;5.15;2.55;;;;;;;21.40;68.12;100770.69;5053728;28;20436;-62
2022/06/11 06:45:27;;;;;;;4.43;2.20;;;;;;;21.59;68.14;100763.09;5073440;28;20032;-62
2022/06/11 06:47:52;;;;;;;5.95;2.25;;;;;;;21.87;69.57;100769.34;5052046;28;20033;-62
2022/06/11 06:50:18;;;;;;;5.55;2.67;;;;;;;22.00;67.35;100764.81;5033602;28;20079;-62
2022/06/11 06:52:43;;;;;;;3.75;2.42;;;;;;;22.06;64.59;100774.34;5033417;28;20481;-62
2022/06/11 06:55:09;;;;;;;4.30;2.22;;;;;;;22.22;66.22;100776.91;5033479;28;20025;-62
2022/06/11 06:57:35;;;;;;;11.15;2.78;;;;;;;22.40;67.42;100773.81;5033519;28;20029;-62
2022/06/11 07:00:02;;;;;;;4.45;2.22;;;;;;;22.46;64.59;100773.38;5033203;28;20104;-62
2022/06/11 07:02:28;;;;;;;6.60;2.53;;;;;;;22.63;65.79;100774.94;5033557;28;20469;-62
2022/06/11 07:04:53;;;;;;;6.03;2.40;;;;;;;22.72;66.58;100779.72;5033286;28;20029;-62
2022/06/11 07:07:19;;;;;;;4.13;2.22;;;;;;;22.89;63.87;100776.69;5032687;28;20053;-62
2022/06/11 07:09:45;;;;;;;6.53;3.42;;;;;;;23.01;61.71;100786.66;5033109;28;20040;-62
2022/06/11 07:12:11;;;;;;;6.60;1.98;;;;;;;23.20;62.50;100776.22;5033349;28;20500;-62
2022/06/11 07:14:36;;;;;;;4.05;2.20;;;;;;;23.32;62.19;100778.97;5033001;28;20025;-62
2022/06/11 07:17:06;;;;;;;3.90;1.90;;;;;;;23.50;60.65;100767.69;5047418;28;20029;-62
2022/06/11 07:19:38;;;;;;;4.13;2.00;;;;;;;23.74;58.17;100771.34;5046018;28;20138;-62
2022/06/11 07:22:13;;;;;;;4.13;1.90;;;;;;;23.83;57.48;100778.78;5052907;28;20029;-62
2022/06/11 07:24:41;;;;;;;2.70;1.70;;;;;;;23.98;57.88;100775.81;5052885;28;20028;-62
2022/06/11 07:27:11;;;;;;;4.88;2.10;;;;;;;24.18;56.13;100766.13;5052357;28;20472;-62
2022/06/11 07:29:43;;;;;;;3.60;1.60;;;;;;;24.39;54.94;100776.22;5051149;28;20025;-62
2022/06/11 07:32:14;;;;;;;4.13;1.98;;;;;;;24.63;53.81;100770.72;5050847;28;20032;-62
2022/06/11 07:34:40;;;;;;;4.25;2.25;;;;;;;24.89;52.55;100760.53;5050629;28;20028;-62
2022/06/11 07:37:06;;;;;;;4.57;1.92;;;;;;;25.12;51.50;100765.88;5050747;28;20033;-62
2022/06/11 07:39:33;;;;;;;4.03;1.70;;;;;;;25.38;50.29;100769.22;5051246;28;20027;-62
2022/06/11 07:41:58;;;;;;;4.63;2.13;;;;;;;25.67;50.68;100767.69;5052700;28;20056;-62
2022/06/11 07:44:24;;;;;;;5.95;2.25;;;;;;;25.84;50.23;100761.69;5052471;28;20532;-63
2022/06/11 07:46:49;;;;;;;8.32;2.00;;;;;;;25.95;48.86;100765.25;5052338;28;20037;-62
2022/06/11 07:49:15;;;;;;;3.63;1.88;;;;;;;26.20;48.18;100765.91;5036788;28;20378;-63
2022/06/11 07:51:41;;;;;;;7.10;2.00;;;;;;;26.42;49.33;100760.38;5032550;28;20030;-63
2022/06/11 07:54:06;;;;;;;2.67;1.60;;;;;;;26.87;48.71;100761.88;5032239;28;20443;-63
2022/06/11 07:56:32;;;;;;;3.50;1.80;;;;;;;27.14;48.49;100764.84;5032272;28;20133;-63
2022/06/11 07:58:57;;;;;;;5.53;1.88;;;;;;;27.25;48.54;100766.63;5030426;28;20017;-63
2022/06/11 08:01:23;;;;;;;3.50;2.22;;;;;;;27.64;47.72;100763.94;5030379;28;20126;-63
2022/06/11 08:03:48;;;;;;;7.47;1.95;;;;;;;27.73;45.52;100762.19;5030238;28;20028;-63
2022/06/11 08:06:14;;;;;;;6.07;1.70;;;;;;;28.08;44.34;100773.53;5030775;28;20099;-63
2022/06/11 08:08:40;;;;;;;4.32;1.67;;;;;;;28.02;43.67;100769.47;5029233;28;20104;-63
2022/06/11 08:11:06;;;;;;;3.53;1.67;;;;;;;27.82;44.55;100761.38;5039197;28;20021;-63
2022/06/11 08:13:32;;;;;;;4.53;1.60;;;;;;;28.18;45.14;100775.28;5037308;28;20036;-63
2022/06/11 08:15:59;;;;;;;5.18;1.80;;;;;;;28.50;42.38;100757.72;5030388;28;20044;-63
2022/06/11 08:18:26;;;;;;;4.38;1.58;;;;;;;28.57;42.60;100756.13;5049466;28;20022;-63
2022/06/11 08:20:52;;;;;;;4.75;2.08;;;;;;;29.10;43.02;100762.78;5030420;28;20030;-63
2022/06/11 08:23:19;;;;;;;3.67;1.90;;;;;;;29.44;42.64;100759.31;5030637;28;20034;-63
2022/06/11 08:25:45;;;;;;;3.55;1.90;;;;;;;29.72;41.18;100765.66;5030192;28;20095;-63
2022/06/11 08:28:13;;;;;;;4.10;1.95;;;;;;;29.60;41.73;100766.88;5030267;28;20473;-63
2022/06/11 08:30:40;;;;;;;3.30;1.80;;;;;;;29.86;42.40;100761.53;5031233;28;20037;-64
2022/06/11 08:33:05;;;;;;;5.05;1.73;;;;;;;29.87;42.38;100760.53;5031130;28;20084;-64
2022/06/11 08:35:33;;;;;;;4.28;1.52;;;;;;;30.02;42.71;100769.94;5029809;28;20049;-64
2022/06/11 08:37:58;;;;;;;3.38;1.52;;;;;;;30.05;41.79;100773.22;5029856;28;20115;-64
2022/06/11 08:40:39;;;;;;;3.35;1.60;;;;;;;30.11;42.39;100742.44;5029545;28;20100;-64
2022/06/11 08:43:22;;;;;;;2.67;1.55;;;;;;;29.64;41.63;100773.75;5048846;28;20021;-64
2022/06/11 08:46:07;;;;;;;5.78;1.67;;;;;;;29.96;42.22;100757.72;5048855;28;20058;-64
2022/06/11 08:48:39;;;;;;;5.38;2.00;;;;;;;30.62;40.34;100761.81;5044332;28;20488;-64
2022/06/11 08:51:17;;;;;;;3.33;1.70;;;;;;;30.85;40.36;100765.78;5038432;28;20061;-64
2022/06/11 08:53:42;;;;;;;3.97;1.50;;;;;;;31.06;40.71;100770.00;5038451;28;20365;-64
2022/06/11 08:56:27;;;;;;;3.45;1.20;;;;;;;31.17;39.65;100764.25;5049499;28;20029;-64
2022/06/11 08:59:08;;;;;;;4.45;1.48;;;;;;;31.24;39.15;100754.31;5049530;28;20032;-64
2022/06/11 09:01:36;;;;;;;5.25;1.67;;;;;;;30.68;39.27;100760.28;5043423;28;20100;-64
2022/06/11 09:04:10;;;;;;;4.05;1.73;;;;;;;30.79;39.36;100758.16;5029431;28;20137;-64
2022/06/11 09:06:59;;;;;;;3.70;1.60;;;;;;;31.12;40.68;100752.91;5030173;28;20049;-64
2022/06/11 09:09:40;;;;;;;2.95;1.15;;;;;;;31.42;40.21;100744.13;5031514;28;20046;-65
2022/06/11 09:12:51;;;;;;;3.67;1.60;;;;;;;31.40;38.02;100757.19;5029694;28;20500;-65
2022/06/11 09:15:35;;;;;;;2.75;1.30;;;;;;;31.43;37.20;100746.72;5030610;28;20033;-64
2022/06/11 09:18:05;;;;;;;3.50;1.30;;;;;;;31.63;38.91;100753.66;5053483;28;20021;-65
2022/06/11 09:20:37;;;;;;;5.07;1.55;;;;;;;31.73;38.76;100754.38;5032976;28;20025;-65
2022/06/11 09:23:24;;;;;;;4.60;1.38;;;;;;;31.60;37.23;100745.75;5030887;28;20539;-65
2022/06/11 09:25:59;;;;;;;1.55;1.20;;;;;;;31.42;37.46;100745.00;5030804;28;20032;-65
2022/06/11 09:28:40;;;;;;;3.92;1.40;;;;;;;31.21;37.56;100740.91;5030933;28;20025;-65
2022/06/11 09:31:21;;;;;;;4.43;1.60;;;;;;;31.23;38.92;100744.34;5043115;28;20116;-65
2022/06/11 09:34:09;;;;;;;4.28;1.30;;;;;;;31.43;37.86;100735.72;5050791;28;20040;-65
2022/06/11 09:36:39;;;;;;;1.65;0.95;;;;;;;31.48;36.33;100732.47;5050795;28;20544;-65
2022/06/11 09:39:13;;;;;;;4.70;1.75;;;;;;;31.78;35.55;100740.97;5047272;28;20597;-65
2022/06/11 09:42:00;;;;;;;3.70;1.30;;;;;;;32.03;37.24;100739.19;5042262;28;20135;-65
2022/06/11 09:44:55;;;;;;;3.03;1.00;;;;;;;32.01;35.91;100746.75;5029163;28;20057;-65
2022/06/11 09:48:08;;;;;;;2.80;1.00;;;;;;;32.35;36.22;100735.59;5028767;28;20051;-65
2022/06/11 09:50:53;;;;;;;3.13;1.02;;;;;;;32.21;36.07;100728.88;5029438;28;20041;-65
2022/06/11 09:54:10;;;;;;;3.55;1.00;;;;;;;32.52;35.46;100735.44;5031283;28;20051;-65
2022/06/11 09:56:59;;;;;;;2.30;1.00;;;;;;;33.00;35.52;100738.16;5048988;28;20037;-65
2022/06/11 09:59:33;;;;;;;4.22;0.93;;;;;;;33.24;33.58;100738.13;5051895;28;20385;-65
2022/06/11 10:05:30;;;;;;;2.97;0.90;;;;;;;33.00;34.50;100734.53;5041672;28;20082;-65
2022/06/11 10:08:09;;;;;;;4.28;1.08;;;;;;;32.71;35.30;100729.59;5035060;28;20115;-65
2022/06/11 10:10:39;;;;;;;5.93;1.63;;;;;;;32.61;32.86;100739.94;5035539;28;20488;-65
2022/06/11 10:13:23;;;;;;;1.42;0.80;;;;;;;32.46;32.59;100736.16;5053545;28;20052;-65
2022/06/11 10:15:49;;;;;;;2.75;1.10;;;;;;;32.54;32.91;100738.88;5048102;28;20388;-65
2022/06/11 10:18:24;;;;;;;4.68;1.33;;;;;;;33.10;34.37;100730.56;5056207;28;20172;-65
2022/06/11 10:20:56;;;;;;;4.47;1.10;;;;;;;33.64;33.96;100733.47;5034089;28;20029;-65
2022/06/11 10:23:48;;;;;;;4.10;0.90;;;;;;;33.57;32.92;100732.47;5034396;28;20533;-65
2022/06/11 10:26:22;;;;;;;2.28;0.75;;;;;;;33.59;33.80;100724.88;5032930;28;20070;-65
2022/06/11 10:29:00;;;;;;;0.95;0.73;;;;;;;33.63;32.10;100732.63;5031891;28;20022;-65
2022/06/11 10:31:34;;;;;;;0.85;0.60;;;;;;;33.41;31.79;100732.53;5048896;28;20029;-65
2022/06/11 10:34:07;;;;;;;2.13;0.82;;;;;;;33.26;32.73;100732.41;5046765;28;20041;-65
2022/06/11 10:36:38;;;;;;;1.27;0.70;;;;;;;33.49;30.77;100738.91;5033259;28;20026;-65
2022/06/11 10:39:21;;;;;;;4.40;0.73;;;;;;;33.67;35.36;100727.59;5050374;28;20449;-65
2022/06/11 10:42:04;;;;;;;3.35;0.75;;;;;;;33.42;32.06;100726.00;5053171;28;20123;-65
2022/06/11 10:44:36;;;;;;;3.38;1.13;;;;;;;33.98;33.43;100722.94;5053087;28;20037;-65
2022/06/11 10:47:26;;;;;;;1.98;0.70;;;;;;;34.00;31.25;100727.25;5053666;28;20032;-65
2022/06/11 10:50:07;;;;;;;4.28;1.00;;;;;;;34.01;31.74;100720.69;5035589;28;20050;-65
2022/06/11 10:52:40;;;;;;;4.75;1.10;;;;;;;34.46;34.10;100725.38;5033478;28;20091;-65
2022/06/11 10:55:10;;;;;;;3.17;0.88;;;;;;;34.52;34.00;100724.63;5033566;28;20095;-65
2022/06/11 10:57:37;;;;;;;3.05;1.10;;;;;;;34.73;31.93;100721.16;5032889;28;20124;-65
2022/06/11 11:00:18;;;;;;;1.95;0.93;;;;;;;34.96;33.40;100711.75;5041953;28;20024;-65
2022/06/11 11:02:53;;;;;;;4.38;1.13;;;;;;;34.18;30.99;100715.91;5053038;28;20035;-65
2022/06/11 11:05:56;;;;;;;2.95;0.80;;;;;;;33.49;32.16;100702.16;5033732;28;20453;-65
2022/06/11 11:08:21;;;;;;;1.97;1.20;;;;;;;33.87;34.71;100706.78;5031404;28;20040;-65
2022/06/11 11:10:50;;;;;;;4.45;0.95;;;;;;;34.31;33.48;100700.44;5032052;28;20288;-65
2022/06/11 11:13:27;;;;;;;4.35;0.93;;;;;;;34.72;33.86;100703.69;5032117;28;20017;-65
2022/06/11 11:16:22;;;;;;;2.03;1.20;;;;;;;34.87;31.70;100704.56;5035970;28;20529;-65
2022/06/11 11:18:56;;;;;;;6.95;0.90;;;;;;;34.21;30.23;100698.94;5033016;28;20116;-65
2022/06/11 11:21:32;;;;;;;3.60;1.13;;;;;;;34.49;31.91;100702.88;5031893;28;20035;-65
2022/06/11 11:24:05;;;;;;;2.50;0.90;;;;;;;35.07;28.33;100699.38;5032043;28;20025;-65
2022/06/11 11:26:46;;;;;;;5.25;1.08;;;;;;;34.84;32.37;100690.25;5030454;28;20040;-65
2022/06/11 11:29:21;;;;;;;2.92;0.80;;;;;;;34.79;30.43;100693.59;5029673;28;20576;-65
2022/06/11 11:31:57;;;;;;;3.60;1.23;;;;;;;34.87;31.24;100692.66;5044314;28;20025;-65
2022/06/11 11:34:41;;;;;;;2.47;0.80;;;;;;;34.84;30.69;100691.13;5036773;28;20030;-65
2022/06/11 11:37:13;;;;;;;3.28;0.88;;;;;;;35.02;30.84;100688.88;5029797;28;20079;-65
2022/06/11 11:39:49;;;;;;;4.97;0.80;;;;;;;35.26;30.13;100688.56;5041451;28;20203;-65
2022/06/11 11:42:22;;;;;;;2.92;0.98;;;;;;;35.66;29.73;100687.19;5030749;28;20087;-65
2022/06/11 11:44:57;;;;;;;3.42;1.00;;;;;;;35.66;29.10;100693.59;5030992;28;20531;-65
2022/06/11 11:47:37;;;;;;;3.75;0.80;;;;;;;35.51;28.83;100689.13;5043906;28;20021;-65
2022/06/11 11:50:12;;;;;;;2.72;0.80;;;;;;;35.60;28.78;100688.81;5041781;28;20036;-65